Sao Jose do Barreiro, Brazil
Current Conditions -  °F | °C
As of 10:00 AM on Tuesday 21 Oct 2014 (Local Time) from SBGW Reporting Station
Overcast Overcast  
Wind Chill: 68°   Ceiling: 2500
Heat Index: 68°   Visibility: 5mi
Dew Point: 57°   Wind: 2mph
Humidity: 68%   Direction: 190°S
Pressure: 30.15"   Gusts: NA
Location:  22.65°S, 44.58°W
Report Text: SBGW 211200Z 19002KT 8000 BKN025 OVC040 20/14 Q1021
Loading
Personal Weather Stations






























Interactive Weather Map
Tropical Storm Tracking
New forecast layout! Learn more

10-Day Weather Forecast

Advertisements
Track Severe Weather on mobile